No.3toumei Maru — JD2403 — position and weather

sailwx.info

Track history (hours):
 
Tides and Currents Weather Stations Pressure Air Temp Water Temp Dewpoint Dewpoint Depression Visibility Wind Speed Wind Dir Waves Ship Positions

No.3toumei Maru

Last reported at 2017-Dec-03 16:43 UTC. Time now 2017-Dec-13 22:33 UTC.
Position N 41°31' E 140°44'.
Warning: this ship's position is 10 days out of date.

Length 60 m.

Type: Tanker. MMSI: 431000178.

Date/timePositionNaut miles runAvg speedWind from/ knotsBaromVisibWave heightAir tempDewpointWater temp
2017-Dec-03 16:43N 41°31' E 140°44'2 8.9
2017-Dec-03 16:29N 41°32' E 140°46'4 8.4
2017-Dec-03 15:59N 41°34' E 140°51'3 5.5
2017-Dec-03 15:27N 41°36' E 140°54'4 8.3
2017-Dec-03 14:59N 41°35' E 140°59'4 7.3
2017-Dec-03 14:30N 41°34' E 141°04'4 7.6
2017-Dec-03 14:00N 41°33' E 141°09'5 9.4
2017-Dec-03 13:30N 41°32' E 141°15'6 8.8
2017-Dec-03 12:50N 41°30' E 141°22'  
2017-Dec-01 03:11N 34°57' E 139°44'210.6
2017-Dec-01 02:57N 34°60' E 139°44'612.3
2017-Dec-01 02:29N 35°05' E 139°45'612.3
2017-Dec-01 02:00N 35°11' E 139°46'611.9
2017-Dec-01 01:30N 35°17' E 139°45'611.4
2017-Dec-01 01:00N 35°22' E 139°42'611.3
2017-Dec-01 00:30N 35°27' E 139°47'612.1
2017-Dec-01 00:00N 35°30' E 139°53'712.2
2017-Nov-30 23:25N 35°34' E 140°00'511.6
2017-Nov-30 23:00N 35°35' E 140°06'1 1.5
2017-Nov-30 22:30N 35°36' E 140°06'0 0.0
2017-Nov-30 22:00N 35°36' E 140°06'0 0.0
2017-Nov-30 21:30N 35°36' E 140°06'0 0.0
2017-Nov-30 21:00N 35°36' E 140°06'0 0.0
2017-Nov-30 20:30N 35°36' E 140°06'0 0.0
2017-Nov-30 20:00N 35°36' E 140°06'0 0.0
2017-Nov-30 19:30N 35°36' E 140°06'0 0.0
2017-Nov-30 19:00N 35°36' E 140°06'0 0.0
2017-Nov-30 18:28N 35°36' E 140°06'0 0.0
2017-Nov-30 17:59N 35°36' E 140°06'0 0.0
2017-Nov-30 17:29N 35°36' E 140°06'0 0.0
2017-Nov-30 16:59N 35°36' E 140°06'0 0.0
2017-Nov-30 16:29N 35°36' E 140°06'0 0.0
2017-Nov-30 16:00N 35°36' E 140°06'0 0.0
2017-Nov-30 15:30N 35°36' E 140°06'0 0.0
2017-Nov-30 15:00N 35°36' E 140°06'0 0.0
2017-Nov-30 14:30N 35°36' E 140°06'0 0.0
2017-Nov-30 14:00N 35°36' E 140°06'0 0.0
2017-Nov-30 13:30N 35°36' E 140°06'0 0.0
2017-Nov-30 13:00N 35°36' E 140°06'0 0.0
2017-Nov-30 12:30N 35°36' E 140°06'0 0.0
2017-Nov-30 12:00N 35°36' E 140°06'0 0.0
2017-Nov-30 11:30N 35°36' E 140°06'0 0.0
2017-Nov-30 11:00N 35°36' E 140°06'0 0.0
2017-Nov-30 10:30N 35°36' E 140°06'0 0.0
2017-Nov-30 10:00N 35°36' E 140°06'0 0.0
2017-Nov-30 09:30N 35°36' E 140°06'0 0.0
2017-Nov-30 09:00N 35°36' E 140°06'0 0.0
2017-Nov-30 08:30N 35°36' E 140°06'0 0.0
2017-Nov-30 08:00N 35°36' E 140°06'0 0.0
2017-Nov-30 07:30N 35°36' E 140°06'0 0.0
2017-Nov-30 06:58N 35°36' E 140°06'0 0.0
2017-Nov-30 06:28N 35°36' E 140°06'0 0.0
2017-Nov-30 05:58N 35°36' E 140°06'0 0.2
2017-Nov-30 05:30N 35°36' E 140°06'2 4.4
2017-Nov-30 05:00N 35°35' E 140°04'10 9.4
2017-Nov-30 03:53N 35°31' E 139°52'3 7.8
2017-Nov-30 03:30N 35°29' E 139°49'1 2.0
2017-Nov-30 02:59N 35°30' E 139°48'2 1.0
2017-Nov-30 00:29N 35°32' E 139°46'3 6.8
2017-Nov-30 00:01N 35°30' E 139°49'1 2.0
2017-Nov-29 23:30N 35°29' E 139°49'0 0.1
2017-Nov-29 23:00N 35°29' E 139°49'0 0.1
2017-Nov-29 22:30N 35°29' E 139°49'0 0.1
2017-Nov-29 22:00N 35°29' E 139°49'0 0.0
2017-Nov-29 21:30N 35°29' E 139°49'0 0.0
2017-Nov-29 20:59N 35°29' E 139°49'0 0.0
2017-Nov-29 20:29N 35°29' E 139°49'0 0.0
2017-Nov-29 19:59N 35°29' E 139°49'0 0.0
2017-Nov-29 19:29N 35°29' E 139°49'0 0.0
2017-Nov-29 18:59N 35°29' E 139°49'0 0.0
2017-Nov-29 18:26N 35°29' E 139°49'0 0.0
2017-Nov-29 17:59N 35°29' E 139°49'0 0.0
2017-Nov-29 17:29N 35°29' E 139°49'0 0.0
2017-Nov-29 16:59N 35°29' E 139°49'0 0.0
2017-Nov-29 16:29N 35°29' E 139°49'0 0.0
2017-Nov-29 15:59N 35°29' E 139°49'0 0.0
2017-Nov-29 15:29N 35°29' E 139°49'0 0.0
2017-Nov-29 14:59N 35°29' E 139°49'0 0.0
2017-Nov-29 14:29N 35°29' E 139°49'0 0.0
2017-Nov-29 13:59N 35°29' E 139°49'0 0.0
2017-Nov-29 13:29N 35°29' E 139°49'0 0.0
2017-Nov-29 12:59N 35°29' E 139°49'2 4.8
2017-Nov-29 12:30N 35°27' E 139°48'611.6
2017-Nov-29 12:00N 35°21' E 139°45'510.5
2017-Nov-29 11:30N 35°16' E 139°46'510.7
2017-Nov-29 11:00N 35°11' E 139°47'510.7
2017-Nov-29 10:30N 35°06' E 139°44'611.2
2017-Nov-29 10:00N 35°02' E 139°39'3312.9
2017-Nov-29 07:26N 34°42' E 139°07'812.2
2017-Nov-29 06:49N 34°37' E 138°60'20510.5
2017-Nov-28 11:11N 33°58' E 134°56'712.2
2017-Nov-28 10:37N 34°03' E 134°50'612.1
2017-Nov-28 10:06N 34°08' E 134°45'212.5
2017-Nov-28 09:58N 34°09' E 134°44'812.9
2017-Nov-28 09:23N 34°15' E 134°39'512.3
2017-Nov-28 08:59N 34°17' E 134°33'93 4.5
2017-Nov-27 12:25N 34°03' E 132°42'511.0
2017-Nov-27 12:00N 34°01' E 132°37'610.5
2017-Nov-27 11:26N 33°57' E 132°32'2510.7
2017-Nov-27 09:08N 33°46' E 132°05'211.3
2017-Nov-27 09:00N 33°46' E 132°03'2010.3
2017-Nov-27 07:02N 34°00' E 131°47'3 3.6
2017-Nov-27 06:18N 34°02' E 131°49'1 0.2
2017-Nov-27 01:05N 34°01' E 131°48'210.1
2017-Nov-27 00:55N 34°00' E 131°47'4 8.1
2017-Nov-27 00:27N 33°56' E 131°47'145 9.8
2017-Nov-26 09:41N 34°31' E 134°38'410.6
2017-Nov-26 09:20N 34°32' E 134°42'410.7
2017-Nov-26 08:58N 34°33' E 134°47'510.6
2017-Nov-26 08:30N 34°35' E 134°52'510.3
2017-Nov-26 07:59N 34°37' E 134°58'510.2
2017-Nov-26 07:30N 34°36' E 135°04'5 9.9
2017-Nov-26 07:00N 34°31' E 135°04'611.4
2017-Nov-26 06:30N 34°26' E 135°02'611.5
2017-Nov-26 06:00N 34°20' E 135°01'610.9
2017-Nov-26 05:30N 34°15' E 135°01'9 1.8
2017-Nov-26 00:24N 34°07' E 135°08'0 0.0
2017-Nov-25 23:36N 34°07' E 135°08'0 0.0
2017-Nov-25 23:30N 34°07' E 135°08'0 0.0
2017-Nov-25 22:12N 34°07' E 135°08'0 1.6
2017-Nov-25 21:56N 34°07' E 135°08'0 0.1
2017-Nov-25 21:25N 34°07' E 135°08'0 0.0
2017-Nov-25 20:05N 34°07' E 135°08'0 0.0
2017-Nov-25 18:53N 34°07' E 135°08'0 0.2
2017-Nov-25 17:04N 34°07' E 135°07'110.7
2017-Nov-25 17:00N 34°08' E 135°06'612.0
2017-Nov-25 16:30N 34°08' E 134°59'612.0
2017-Nov-25 16:00N 34°08' E 134°52'612.0
2017-Nov-25 15:30N 34°10' E 134°45'611.7
2017-Nov-25 14:59N 34°14' E 134°39'510.0
2017-Nov-25 14:29N 34°17' E 134°34'4 8.2
2017-Nov-25 14:00N 34°18' E 134°30'32 1.1
2017-Nov-24 07:30N 34°33' E 135°05'  
Track history (hours):
 
Tides and Currents Weather Stations Pressure Air Temp Water Temp Dewpoint Dewpoint Depression Visibility Wind Speed Wind Dir Waves Ship Positions

No.3toumei Maru

Last reported at 2017-Dec-03 16:43 UTC. Time now 2017-Dec-13 22:33 UTC.
Position N 41°31' E 140°44'.
Warning: this ship's position is 10 days out of date.

Length 60 m.

Type: Tanker. MMSI: 431000178.

Date/timePositionNaut miles runAvg speedWind from/ knotsBaromVisibWave heightAir tempDewpointWater temp
2017-Dec-03 16:43N 41°31' E 140°44'2 8.9
2017-Dec-03 16:29N 41°32' E 140°46'4 8.4
2017-Dec-03 15:59N 41°34' E 140°51'3 5.5
2017-Dec-03 15:27N 41°36' E 140°54'4 8.3
2017-Dec-03 14:59N 41°35' E 140°59'4 7.3
2017-Dec-03 14:30N 41°34' E 141°04'4 7.6
2017-Dec-03 14:00N 41°33' E 141°09'5 9.4
2017-Dec-03 13:30N 41°32' E 141°15'6 8.8
2017-Dec-03 12:50N 41°30' E 141°22'  
2017-Dec-01 03:11N 34°57' E 139°44'210.6
2017-Dec-01 02:57N 34°60' E 139°44'612.3
2017-Dec-01 02:29N 35°05' E 139°45'612.3
2017-Dec-01 02:00N 35°11' E 139°46'611.9
2017-Dec-01 01:30N 35°17' E 139°45'611.4
2017-Dec-01 01:00N 35°22' E 139°42'611.3
2017-Dec-01 00:30N 35°27' E 139°47'612.1
2017-Dec-01 00:00N 35°30' E 139°53'712.2
2017-Nov-30 23:25N 35°34' E 140°00'511.6
2017-Nov-30 23:00N 35°35' E 140°06'1 1.5
2017-Nov-30 22:30N 35°36' E 140°06'0 0.0
2017-Nov-30 22:00N 35°36' E 140°06'0 0.0
2017-Nov-30 21:30N 35°36' E 140°06'0 0.0
2017-Nov-30 21:00N 35°36' E 140°06'0 0.0
2017-Nov-30 20:30N 35°36' E 140°06'0 0.0
2017-Nov-30 20:00N 35°36' E 140°06'0 0.0
2017-Nov-30 19:30N 35°36' E 140°06'0 0.0
2017-Nov-30 19:00N 35°36' E 140°06'0 0.0
2017-Nov-30 18:28N 35°36' E 140°06'0 0.0
2017-Nov-30 17:59N 35°36' E 140°06'0 0.0
2017-Nov-30 17:29N 35°36' E 140°06'0 0.0
2017-Nov-30 16:59N 35°36' E 140°06'0 0.0
2017-Nov-30 16:29N 35°36' E 140°06'0 0.0
2017-Nov-30 16:00N 35°36' E 140°06'0 0.0
2017-Nov-30 15:30N 35°36' E 140°06'0 0.0
2017-Nov-30 15:00N 35°36' E 140°06'0 0.0
2017-Nov-30 14:30N 35°36' E 140°06'0 0.0
2017-Nov-30 14:00N 35°36' E 140°06'0 0.0
2017-Nov-30 13:30N 35°36' E 140°06'0 0.0
2017-Nov-30 13:00N 35°36' E 140°06'0 0.0
2017-Nov-30 12:30N 35°36' E 140°06'0 0.0
2017-Nov-30 12:00N 35°36' E 140°06'0 0.0
2017-Nov-30 11:30N 35°36' E 140°06'0 0.0
2017-Nov-30 11:00N 35°36' E 140°06'0 0.0
2017-Nov-30 10:30N 35°36' E 140°06'0 0.0
2017-Nov-30 10:00N 35°36' E 140°06'0 0.0
2017-Nov-30 09:30N 35°36' E 140°06'0 0.0
2017-Nov-30 09:00N 35°36' E 140°06'0 0.0
2017-Nov-30 08:30N 35°36' E 140°06'0 0.0
2017-Nov-30 08:00N 35°36' E 140°06'0 0.0
2017-Nov-30 07:30N 35°36' E 140°06'0 0.0
2017-Nov-30 06:58N 35°36' E 140°06'0 0.0
2017-Nov-30 06:28N 35°36' E 140°06'0 0.0
2017-Nov-30 05:58N 35°36' E 140°06'0 0.2
2017-Nov-30 05:30N 35°36' E 140°06'2 4.4
2017-Nov-30 05:00N 35°35' E 140°04'10 9.4
2017-Nov-30 03:53N 35°31' E 139°52'3 7.8
2017-Nov-30 03:30N 35°29' E 139°49'1 2.0
2017-Nov-30 02:59N 35°30' E 139°48'2 1.0
2017-Nov-30 00:29N 35°32' E 139°46'3 6.8
2017-Nov-30 00:01N 35°30' E 139°49'1 2.0
2017-Nov-29 23:30N 35°29' E 139°49'0 0.1
2017-Nov-29 23:00N 35°29' E 139°49'0 0.1
2017-Nov-29 22:30N 35°29' E 139°49'0 0.1
2017-Nov-29 22:00N 35°29' E 139°49'0 0.0
2017-Nov-29 21:30N 35°29' E 139°49'0 0.0
2017-Nov-29 20:59N 35°29' E 139°49'0 0.0
2017-Nov-29 20:29N 35°29' E 139°49'0 0.0
2017-Nov-29 19:59N 35°29' E 139°49'0 0.0
2017-Nov-29 19:29N 35°29' E 139°49'0 0.0
2017-Nov-29 18:59N 35°29' E 139°49'0 0.0
2017-Nov-29 18:26N 35°29' E 139°49'0 0.0
2017-Nov-29 17:59N 35°29' E 139°49'0 0.0
2017-Nov-29 17:29N 35°29' E 139°49'0 0.0
2017-Nov-29 16:59N 35°29' E 139°49'0 0.0
2017-Nov-29 16:29N 35°29' E 139°49'0 0.0
2017-Nov-29 15:59N 35°29' E 139°49'0 0.0
2017-Nov-29 15:29N 35°29' E 139°49'0 0.0
2017-Nov-29 14:59N 35°29' E 139°49'0 0.0
2017-Nov-29 14:29N 35°29' E 139°49'0 0.0
2017-Nov-29 13:59N 35°29' E 139°49'0 0.0
2017-Nov-29 13:29N 35°29' E 139°49'0 0.0
2017-Nov-29 12:59N 35°29' E 139°49'2 4.8
2017-Nov-29 12:30N 35°27' E 139°48'611.6
2017-Nov-29 12:00N 35°21' E 139°45'510.5
2017-Nov-29 11:30N 35°16' E 139°46'510.7
2017-Nov-29 11:00N 35°11' E 139°47'510.7
2017-Nov-29 10:30N 35°06' E 139°44'611.2
2017-Nov-29 10:00N 35°02' E 139°39'3312.9
2017-Nov-29 07:26N 34°42' E 139°07'812.2
2017-Nov-29 06:49N 34°37' E 138°60'20510.5
2017-Nov-28 11:11N 33°58' E 134°56'712.2
2017-Nov-28 10:37N 34°03' E 134°50'612.1
2017-Nov-28 10:06N 34°08' E 134°45'212.5
2017-Nov-28 09:58N 34°09' E 134°44'812.9
2017-Nov-28 09:23N 34°15' E 134°39'512.3
2017-Nov-28 08:59N 34°17' E 134°33'93 4.5
2017-Nov-27 12:25N 34°03' E 132°42'511.0
2017-Nov-27 12:00N 34°01' E 132°37'610.5
2017-Nov-27 11:26N 33°57' E 132°32'2510.7
2017-Nov-27 09:08N 33°46' E 132°05'211.3
2017-Nov-27 09:00N 33°46' E 132°03'2010.3
2017-Nov-27 07:02N 34°00' E 131°47'3 3.6
2017-Nov-27 06:18N 34°02' E 131°49'1 0.2
2017-Nov-27 01:05N 34°01' E 131°48'210.1
2017-Nov-27 00:55N 34°00' E 131°47'4 8.1
2017-Nov-27 00:27N 33°56' E 131°47'145 9.8
2017-Nov-26 09:41N 34°31' E 134°38'410.6
2017-Nov-26 09:20N 34°32' E 134°42'410.7
2017-Nov-26 08:58N 34°33' E 134°47'510.6
2017-Nov-26 08:30N 34°35' E 134°52'510.3
2017-Nov-26 07:59N 34°37' E 134°58'510.2
2017-Nov-26 07:30N 34°36' E 135°04'5 9.9
2017-Nov-26 07:00N 34°31' E 135°04'611.4
2017-Nov-26 06:30N 34°26' E 135°02'611.5
2017-Nov-26 06:00N 34°20' E 135°01'610.9
2017-Nov-26 05:30N 34°15' E 135°01'9 1.8
2017-Nov-26 00:24N 34°07' E 135°08'0 0.0
2017-Nov-25 23:36N 34°07' E 135°08'0 0.0
2017-Nov-25 23:30N 34°07' E 135°08'0 0.0
2017-Nov-25 22:12N 34°07' E 135°08'0 1.6
2017-Nov-25 21:56N 34°07' E 135°08'0 0.1
2017-Nov-25 21:25N 34°07' E 135°08'0 0.0
2017-Nov-25 20:05N 34°07' E 135°08'0 0.0
2017-Nov-25 18:53N 34°07' E 135°08'0 0.2
2017-Nov-25 17:04N 34°07' E 135°07'110.7
2017-Nov-25 17:00N 34°08' E 135°06'612.0
2017-Nov-25 16:30N 34°08' E 134°59'612.0
2017-Nov-25 16:00N 34°08' E 134°52'612.0
2017-Nov-25 15:30N 34°10' E 134°45'611.7
2017-Nov-25 14:59N 34°14' E 134°39'510.0
2017-Nov-25 14:29N 34°17' E 134°34'4 8.2
2017-Nov-25 14:00N 34°18' E 134°30'32 1.1
2017-Nov-24 07:30N 34°33' E 135°05'  

Dump ship's entire track history